Startpagina
METAR-TAF:

METAR-TAF

Vliegvelden :

Juliaca, Peru

breedte: 15-29S, lengte: 070-09W, hoogte: 3826 m

Actueel weer

Dit bericht is 55 minuten geleden gemaakt, om 18:00 UTC
Wind 9 kt uit het oostzuidoosten
Temperatuur 20°C
Vochtigheid 28%
Druk 1030 hPa
Zicht 10 km of meer
Verspreide wolken op 2500 ft

METAR: SPJL 121800Z 11009KT 9999 SCT025 20/01 Q1030 RMK PP000

Tijdstip: 13:55 (18:55 UTC)

Verwachting

Dit bericht is 1 uur en het 55 minuten geleden gemaakt, om 17:00 UTC
Verwachting geldig van 12 om 18 UTC tot 13 om 18 UTC
Wind 10 kt uit het oosten
Zicht 10 km of meer
Verspreide wolken op 2000 ft
Van 12 om 2330 UTC
Wind 5 kt uit variabele richting
Zicht 10 km of meer
Gebroken wolken op 1500 ft
Gebroken wolken op 9000 ft
Van 13 om 1430 UTC
Wind 5 kt uit het zuidzuidwesten
Zicht 10 km of meer
Verspreide wolken op 2000 ft
Verspreide wolken op 7000 ft
Van 12 om 1900 UTC
Wind 12 kt uit het zuidzuidwesten
Zicht 10 km of meer
Verspreide wolken op 9000 ft
Van 13 om 0500 UTC
Wind 5 kt uit variabele richting
Zicht: 8000 m
Verspreide wolken op 5000 ft
Van 13 om 1430 UTC
Wind 5 kt uit het westzuidwesten
Zicht 10 km of meer
Verspreide wolken op 9000 ft

TAF: SPJL 121700Z 1218/1318 09010KT 9999 SCT020 TX20/1219Z TN06/1310Z FM122330 VRB05KT 9999 BKN015 BKN090 FM131430 20006KT 9999 SCT020 SPZA 121700Z 1218/1318 20005KT 9999 SCT070 TX30/1219Z TN17/1310Z FM121900 20012KT 9999 SCT090 FM130500 VRB05KT 8000 SCT050 FM131430 25005KT 9999 SCT090

Waarnemingen en weersverwachtingen van meer dan 4000 vliegvelden (METAR en TAF).

De beschikbare stations zijn de gele en rode punten op de kaart.

Ga met uw muis naar het station om de naam te zien.

Klik dan om waarnemingen en weersverwachtingen te zien.

kaart wijzigen: klik op de groene knoppen met een zwart kruis om in te zoomen, op de groene knop met een streepje om uit te zoomen of op de groene pijlen voor aangrenzende kaarten.


METAR-TAF: